Time;durP1;ratioP1;P1;durP2;ratioP2;P2;SDS_P1;SDS_P2;PMS_P1;PMS_P2;Temp;Humidity;BMP_temperature;BMP_pressure;BME280_temperature;BME280_humidity;BME280_pressure;Samples;Min_cycle;Max_cycle;Signal;HPM_P1;HPM_P2
2021/07/11 00:01:09;;;;;;;9.43;5.73;;;18.50;99.90;;;;;;8389742;28;20450;-78
2021/07/11 00:05:14;;;;;;;7.80;5.17;;;18.60;99.90;;;;;;8401984;28;20196;-78
2021/07/11 00:09:15;;;;;;;4.90;4.47;;;18.50;99.90;;;;;;8415612;28;20230;-77
2021/07/11 00:13:16;;;;;;;5.60;5.13;;;18.50;99.90;;;;;;8395805;28;20440;-78
2021/07/11 00:17:17;;;;;;;6.30;5.67;;;18.40;99.90;;;;;;8397496;28;20211;-79
2021/07/11 00:21:18;;;;;;;5.30;4.80;;;18.40;99.90;;;;;;8400497;28;20564;-78
2021/07/11 00:25:19;;;;;;;4.70;3.97;;;18.30;99.90;;;;;;8397197;28;20511;-77
2021/07/11 00:29:19;;;;;;;4.97;4.50;;;18.30;99.90;;;;;;8402195;28;20244;-77
2021/07/11 00:33:20;;;;;;;5.53;4.93;;;18.30;99.90;;;;;;8393030;28;20474;-77
2021/07/11 00:37:20;;;;;;;4.60;3.90;;;18.30;99.90;;;;;;8398114;28;20177;-77
2021/07/11 00:41:21;;;;;;;6.90;4.63;;;18.30;99.90;;;;;;8397001;28;20708;-78
2021/07/11 00:45:22;;;;;;;5.10;4.60;;;18.40;99.90;;;;;;8395765;28;20181;-78
2021/07/11 00:49:23;;;;;;;4.57;4.27;;;18.40;99.90;;;;;;8390349;28;20266;-77
2021/07/11 00:53:24;;;;;;;5.50;4.80;;;18.40;99.90;;;;;;8395592;28;20522;-78
2021/07/11 00:57:24;;;;;;;5.00;4.60;;;18.40;99.90;;;;;;8397239;28;20180;-78
2021/07/11 01:01:34;;;;;;;4.70;4.30;;;18.40;99.90;;;;;;8397956;28;20870;-77
2021/07/11 01:05:35;;;;;;;6.37;4.60;;;18.40;99.90;;;;;;8396110;28;20547;-77
2021/07/11 01:09:41;;;;;;;4.40;4.10;;;18.40;99.90;;;;;;8398612;28;20478;-78
2021/07/11 01:13:42;;;;;;;8.47;5.30;;;18.40;99.90;;;;;;8395288;28;20442;-78
2021/07/11 01:17:43;;;;;;;4.40;4.10;;;18.40;99.90;;;;;;8393797;28;20508;-77
2021/07/11 01:21:52;;;;;;;5.00;4.50;;;18.30;99.90;;;;;;8393325;28;20478;-78
2021/07/11 01:25:53;;;;;;;6.90;5.87;;;18.30;99.90;;;;;;8388756;28;20446;-77
2021/07/11 01:29:55;;;;;;;12.50;6.17;;;18.30;99.90;;;;;;8392931;28;20479;-77
2021/07/11 01:33:58;;;;;;;12.83;6.83;;;18.30;99.90;;;;;;8393551;28;20442;-78
2021/07/11 01:37:59;;;;;;;7.83;7.03;;;18.20;99.90;;;;;;8392743;28;20444;-77
2021/07/11 01:42:00;;;;;;;9.60;7.20;;;18.20;99.90;;;;;;8392914;28;20445;-78
2021/07/11 01:46:02;;;;;;;12.40;9.03;;;18.20;99.90;;;;;;8390378;28;20457;-79
2021/07/11 01:50:04;;;;;;;18.70;9.27;;;18.20;99.90;;;;;;8397276;28;20539;-78
2021/07/11 01:54:05;;;;;;;17.10;7.97;;;18.20;99.90;;;;;;8394904;28;20443;-78
2021/07/11 01:58:06;;;;;;;13.53;7.80;;;18.20;99.90;;;;;;8383401;28;20448;-77
2021/07/11 02:02:07;;;;;;;12.53;7.77;;;18.10;99.90;;;;;;8377121;28;20199;-78
2021/07/11 02:06:10;;;;;;;12.63;9.23;;;18.10;99.90;;;;;;8416714;27;20329;-78
2021/07/11 02:10:13;;;;;;;16.00;8.30;;;18.10;99.90;;;;;;8392769;28;20205;-78
2021/07/11 02:14:19;;;;;;;11.27;6.77;;;18.10;99.90;;;;;;8395196;28;21004;-79
2021/07/11 02:18:25;;;;;;;12.53;7.80;;;18.20;99.90;;;;;;8395700;28;21284;-79
2021/07/11 02:22:27;;;;;;;11.73;7.20;;;18.20;99.90;;;;;;8389660;28;20435;-77
2021/07/11 02:26:29;;;;;;;16.90;8.30;;;18.20;99.90;;;;;;8397645;28;20568;-78
2021/07/11 02:30:40;;;;;;;16.77;7.10;;;18.20;99.90;;;;;;8393317;28;20827;-79
2021/07/11 02:34:43;;;;;;;9.30;6.67;;;18.20;99.90;;;;;;8385930;28;20465;-80
2021/07/11 02:38:50;;;;;;;9.77;7.07;;;18.20;99.90;;;;;;8393350;28;20440;-79
2021/07/11 02:42:53;;;;;;;13.13;7.20;;;18.20;99.90;;;;;;8392444;28;20541;-79
2021/07/11 02:47:15;;;;;;;10.30;7.23;;;18.20;99.90;;;;;;8389514;28;20956;-79
2021/07/11 02:51:19;;;;;;;10.63;7.60;;;18.20;99.90;;;;;;8399465;28;20485;-78
2021/07/11 02:55:27;;;;;;;9.80;7.97;;;18.20;99.90;;;;;;8399846;28;20976;-79
2021/07/11 02:59:29;;;;;;;12.77;8.43;;;18.20;99.90;;;;;;8392462;28;20538;-80
2021/07/11 03:03:31;;;;;;;9.70;6.67;;;18.20;99.90;;;;;;8399864;28;20445;-79
2021/07/11 03:07:31;;;;;;;12.73;9.40;;;18.20;99.90;;;;;;8423394;28;20470;-80
2021/07/11 03:11:37;;;;;;;14.83;9.27;;;18.20;99.90;;;;;;8397939;28;20439;-80
2021/07/11 03:15:38;;;;;;;12.40;9.50;;;18.20;99.90;;;;;;8395926;28;20259;-80
2021/07/11 03:19:41;;;;;;;13.97;9.90;;;18.20;99.90;;;;;;8393070;28;20444;-80
2021/07/11 03:23:43;;;;;;;16.93;11.17;;;18.20;99.90;;;;;;8392053;28;20539;-80
2021/07/11 03:27:44;;;;;;;17.03;9.63;;;18.20;99.90;;;;;;8403132;28;20476;-80
2021/07/11 03:31:46;;;;;;;13.30;9.53;;;18.20;99.90;;;;;;8390742;28;20449;-80
2021/07/11 03:35:57;;;;;;;11.77;9.80;;;18.20;99.90;;;;;;8402780;28;20216;-79
2021/07/11 03:40:00;;;;;;;14.40;9.90;;;18.20;99.90;;;;;;8400149;28;20460;-80
2021/07/11 03:44:03;;;;;;;14.57;9.87;;;18.30;99.90;;;;;;8395631;28;20998;-80
2021/07/11 03:48:11;;;;;;;12.73;8.97;;;18.30;99.90;;;;;;8388121;28;20835;-79
2021/07/11 03:52:14;;;;;;;8.90;7.60;;;18.30;99.90;;;;;;8426377;28;20439;-80
2021/07/11 03:56:17;;;;;;;15.93;8.70;;;18.30;99.90;;;;;;8418833;28;20447;-79
2021/07/11 04:00:19;;;;;;;8.50;7.20;;;18.30;99.90;;;;;;8393341;28;20520;-80
2021/07/11 04:04:22;;;;;;;10.03;8.13;;;18.30;99.90;;;;;;8397337;28;20447;-79
2021/07/11 04:08:23;;;;;;;11.93;8.50;;;18.30;99.90;;;;;;8393314;28;20989;-80
2021/07/11 04:12:24;;;;;;;9.80;7.00;;;18.30;99.90;;;;;;8393804;28;20910;-79
2021/07/11 04:16:28;;;;;;;7.80;7.03;;;18.30;99.90;;;;;;8388706;28;21197;-80
2021/07/11 04:20:31;;;;;;;9.93;7.00;;;18.30;99.90;;;;;;8395905;28;20231;-81
2021/07/11 04:24:35;;;;;;;6.93;5.93;;;18.30;99.90;;;;;;8397506;28;20478;-79
2021/07/11 04:28:42;;;;;;;6.40;5.80;;;18.30;99.90;;;;;;8390412;28;20536;-81
2021/07/11 04:32:43;;;;;;;8.53;5.63;;;18.30;99.90;;;;;;8398142;28;20439;-80
2021/07/11 04:36:43;;;;;;;11.50;6.27;;;18.30;99.90;;;;;;8395430;28;20454;-80
2021/07/11 04:40:44;;;;;;;7.70;4.67;;;18.30;99.90;;;;;;8397569;28;20586;-79
2021/07/11 04:44:45;;;;;;;11.43;5.40;;;18.30;99.90;;;;;;8388613;28;20810;-80
2021/07/11 04:48:45;;;;;;;6.13;5.30;;;18.30;99.90;;;;;;8390002;28;20205;-79
2021/07/11 04:52:47;;;;;;;6.10;5.60;;;18.30;99.90;;;;;;8401556;28;20481;-80
2021/07/11 04:56:47;;;;;;;4.90;4.20;;;18.30;99.90;;;;;;8394606;28;20181;-79
2021/07/11 05:00:48;;;;;;;7.50;5.30;;;18.40;99.90;;;;;;8391393;28;20460;-79
2021/07/11 05:04:49;;;;;;;4.97;4.67;;;18.40;99.90;;;;;;8372859;28;20215;-79
2021/07/11 05:08:49;;;;;;;5.97;5.27;;;18.50;99.90;;;;;;8425256;28;20594;-80
2021/07/11 05:12:50;;;;;;;7.10;5.40;;;18.50;99.90;;;;;;8398449;28;20802;-80
2021/07/11 05:16:50;;;;;;;5.33;4.90;;;18.60;99.90;;;;;;8395411;28;20190;-80
2021/07/11 05:20:51;;;;;;;5.10;4.80;;;18.60;99.90;;;;;;8391884;28;20194;-80
2021/07/11 05:24:52;;;;;;;4.60;4.30;;;18.70;99.90;;;;;;8395067;28;21004;-80
2021/07/11 05:28:52;;;;;;;4.50;4.10;;;18.80;99.90;;;;;;8398521;28;20251;-80
2021/07/11 05:32:53;;;;;;;4.37;3.97;;;18.90;99.90;;;;;;8395841;28;20906;-81
2021/07/11 05:36:54;;;;;;;3.60;3.30;;;19.10;99.90;;;;;;8397939;28;20642;-80
2021/07/11 05:40:54;;;;;;;7.10;6.40;;;19.30;99.90;;;;;;8398309;28;20611;-80
2021/07/11 05:44:55;;;;;;;4.90;4.40;;;19.40;99.90;;;;;;8399291;28;20229;-80
2021/07/11 05:48:56;;;;;;;4.90;4.40;;;19.50;99.90;;;;;;8395007;28;20260;-80
2021/07/11 05:52:56;;;;;;;4.73;4.30;;;19.50;99.90;;;;;;8394010;28;20747;-80
2021/07/11 05:56:57;;;;;;;4.40;4.10;;;19.50;99.90;;;;;;8394906;28;20183;-79
2021/07/11 06:00:57;;;;;;;4.50;4.20;;;19.50;99.90;;;;;;8387681;28;20186;-80
2021/07/11 06:04:58;;;;;;;4.73;4.47;;;19.60;99.90;;;;;;8396651;28;20248;-80
2021/07/11 06:08:59;;;;;;;5.63;5.10;;;19.70;99.90;;;;;;8394358;28;20208;-80
2021/07/11 06:12:59;;;;;;;4.70;4.40;;;19.70;99.90;;;;;;8392785;28;22119;-79
2021/07/11 06:17:00;;;;;;;6.50;5.43;;;19.80;99.90;;;;;;8396105;28;20196;-80
2021/07/11 06:21:01;;;;;;;9.50;5.30;;;19.90;99.90;;;;;;8396847;28;20202;-80
2021/07/11 06:25:06;;;;;;;5.63;5.17;;;20.00;99.90;;;;;;8396430;28;20186;-81
2021/07/11 06:29:07;;;;;;;5.07;4.67;;;20.10;99.90;;;;;;8396582;28;20696;-80
2021/07/11 06:33:07;;;;;;;5.10;4.70;;;20.10;99.90;;;;;;8409123;28;20973;-80
2021/07/11 06:37:08;;;;;;;4.90;4.60;;;20.10;99.90;;;;;;8395759;28;20179;-80
2021/07/11 06:41:09;;;;;;;6.53;5.47;;;20.10;99.90;;;;;;8394391;28;20222;-80
2021/07/11 06:45:11;;;;;;;6.17;5.67;;;20.10;99.90;;;;;;8399310;28;20191;-80
2021/07/11 06:49:12;;;;;;;6.53;5.93;;;20.10;99.90;;;;;;8392150;28;20198;-81
2021/07/11 06:53:12;;;;;;;10.40;6.43;;;20.20;99.90;;;;;;8401984;28;20447;-81
2021/07/11 06:57:13;;;;;;;8.10;6.50;;;20.30;99.90;;;;;;8389106;28;20190;-78
2021/07/11 07:01:14;;;;;;;7.40;6.70;;;20.40;99.90;;;;;;8385316;28;20274;-78
2021/07/11 07:05:14;;;;;;;10.33;9.00;;;20.50;99.90;;;;;;8387992;28;20659;-80
2021/07/11 07:09:15;;;;;;;9.30;8.13;;;20.60;99.90;;;;;;8387599;28;20206;-80
2021/07/11 07:13:16;;;;;;;9.83;8.83;;;20.60;99.90;;;;;;8388868;28;20179;-79
2021/07/11 07:17:16;;;;;;;9.57;7.70;;;20.50;99.90;;;;;;8393978;28;20498;-79
2021/07/11 07:21:17;;;;;;;9.70;8.20;;;20.50;99.90;;;;;;8385327;28;20190;-80
2021/07/11 07:25:18;;;;;;;12.30;8.27;;;20.50;99.90;;;;;;8386357;28;20200;-80
2021/07/11 07:29:19;;;;;;;10.90;9.47;;;20.60;99.90;;;;;;8388236;28;20759;-81
2021/07/11 07:33:20;;;;;;;11.50;8.37;;;20.70;99.90;;;;;;8394493;28;20977;-81
2021/07/11 07:37:20;;;;;;;9.47;8.47;;;20.70;99.90;;;;;;8398831;28;20590;-81
2021/07/11 07:41:21;;;;;;;10.70;8.70;;;20.80;99.90;;;;;;8399359;28;20197;-81
2021/07/11 07:45:23;;;;;;;10.17;9.10;;;20.90;99.90;;;;;;8397001;28;20183;-81
2021/07/11 07:49:23;;;;;;;10.60;8.97;;;21.00;99.90;;;;;;8412146;28;20221;-81
2021/07/11 07:53:25;;;;;;;8.50;7.87;;;21.10;99.90;;;;;;8395669;28;20455;-79
2021/07/11 07:57:25;;;;;;;8.57;7.40;;;21.40;99.90;;;;;;8391390;28;20197;-80
2021/07/11 08:01:26;;;;;;;12.37;9.33;;;21.60;99.90;;;;;;8398665;28;20510;-80
2021/07/11 08:05:27;;;;;;;11.50;9.07;;;21.70;99.90;;;;;;8398325;28;20198;-79
2021/07/11 08:09:28;;;;;;;9.57;8.57;;;21.90;99.90;;;;;;8400148;28;20886;-80
2021/07/11 08:13:28;;;;;;;8.63;7.53;;;22.30;99.60;;;;;;8389145;28;20452;-80
2021/07/11 08:17:29;;;;;;;9.50;8.13;;;22.70;99.30;;;;;;8393668;28;20175;-79
2021/07/11 08:21:30;;;;;;;8.83;7.60;;;23.00;98.50;;;;;;8399306;28;20187;-79
2021/07/11 08:25:31;;;;;;;8.90;7.37;;;23.20;97.90;;;;;;8394112;28;20187;-80
2021/07/11 08:29:32;;;;;;;8.93;6.97;;;23.40;97.10;;;;;;8385003;28;20234;-79
2021/07/11 08:33:33;;;;;;;8.47;7.07;;;23.70;97.20;;;;;;8397462;28;20179;-80
2021/07/11 08:37:35;;;;;;;7.80;6.23;;;23.80;96.40;;;;;;8385512;28;20483;-80
2021/07/11 08:41:36;;;;;;;7.20;6.40;;;23.70;95.70;;;;;;8397422;28;20293;-79
2021/07/11 08:45:37;;;;;;;6.30;5.80;;;23.70;96.00;;;;;;8388660;28;20536;-79
2021/07/11 08:49:38;;;;;;;22.23;8.20;;;23.50;95.80;;;;;;8398289;28;20438;-80
2021/07/11 08:53:40;;;;;;;8.10;7.30;;;23.30;96.20;;;;;;8394062;28;20190;-79
2021/07/11 08:57:41;;;;;;;11.07;7.13;;;23.20;96.50;;;;;;8401772;28;20217;-80
2021/07/11 09:01:42;;;;;;;8.80;6.90;;;23.20;96.40;;;;;;8382909;28;20488;-79
2021/07/11 09:05:43;;;;;;;10.10;7.60;;;23.20;96.50;;;;;;8390454;28;20447;-80
2021/07/11 09:09:43;;;;;;;7.50;6.70;;;23.40;96.70;;;;;;8388599;28;20202;-79
2021/07/11 09:13:51;;;;;;;8.40;6.80;;;23.50;95.80;;;;;;8387406;28;20274;-79
2021/07/11 09:17:58;;;;;;;8.53;5.70;;;23.60;95.80;;;;;;8385608;28;20574;-78
2021/07/11 09:22:14;;;;;;;11.13;6.90;;;23.70;96.00;;;;;;8393418;28;20420;-79
2021/07/11 09:26:16;;;;;;;6.87;6.17;;;23.90;95.60;;;;;;8393066;28;20434;-79
2021/07/11 09:30:19;;;;;;;6.77;6.03;;;24.00;95.00;;;;;;8394381;28;20523;-79
2021/07/11 09:34:24;;;;;;;11.53;6.10;;;24.20;94.40;;;;;;8396367;28;20444;-80
2021/07/11 09:38:28;;;;;;;5.50;5.00;;;24.50;93.90;;;;;;8396625;28;20521;-79
2021/07/11 09:42:34;;;;;;;8.43;6.07;;;24.80;93.20;;;;;;8399516;28;20513;-79
2021/07/11 09:46:35;;;;;;;7.57;6.23;;;24.80;92.90;;;;;;8396202;28;20820;-80
2021/07/11 09:50:36;;;;;;;6.00;5.50;;;24.80;93.30;;;;;;8398486;28;20820;-79
2021/07/11 09:54:37;;;;;;;10.97;6.07;;;24.80;93.00;;;;;;8392205;28;20260;-79
2021/07/11 09:58:38;;;;;;;6.67;6.10;;;25.00;93.10;;;;;;8396901;28;20436;-79
2021/07/11 10:02:41;;;;;;;7.40;6.70;;;25.10;92.60;;;;;;8391535;28;20198;-79
2021/07/11 10:06:42;;;;;;;7.00;6.40;;;25.00;92.30;;;;;;8387641;28;20517;-79
2021/07/11 10:10:43;;;;;;;8.83;6.60;;;25.00;92.80;;;;;;8402637;28;21226;-78
2021/07/11 10:14:44;;;;;;;10.20;6.60;;;25.10;93.10;;;;;;8402661;28;20908;-78
2021/07/11 10:18:46;;;;;;;7.53;6.90;;;25.10;93.20;;;;;;8396359;28;20198;-78
2021/07/11 10:22:50;;;;;;;7.40;6.40;;;25.20;93.00;;;;;;8407069;28;20179;-78
2021/07/11 10:26:51;;;;;;;11.33;6.50;;;25.30;92.70;;;;;;8406582;28;20442;-77
2021/07/11 10:30:51;;;;;;;6.90;6.20;;;25.50;92.40;;;;;;8405627;28;20486;-78
2021/07/11 10:34:53;;;;;;;6.80;6.20;;;25.80;92.20;;;;;;8412892;28;20186;-78
2021/07/11 10:38:55;;;;;;;7.50;6.80;;;25.80;91.80;;;;;;8401646;28;20242;-78
2021/07/11 10:42:56;;;;;;;6.70;6.20;;;25.70;90.90;;;;;;8409336;28;20445;-78
2021/07/11 10:46:59;;;;;;;6.80;5.70;;;25.60;91.40;;;;;;8405510;28;20448;-78
2021/07/11 10:51:00;;;;;;;8.07;6.57;;;25.80;91.50;;;;;;8413067;28;20195;-78
2021/07/11 10:55:05;;;;;;;7.63;5.27;;;26.00;91.20;;;;;;8407938;28;20462;-78
2021/07/11 10:59:05;;;;;;;5.60;5.10;;;26.20;90.40;;;;;;8410083;28;20447;-78
2021/07/11 11:03:20;;;;;;;4.43;4.00;;;26.30;90.10;;;;;;8412422;28;20431;-78
2021/07/11 11:07:21;;;;;;;7.80;4.97;;;26.40;88.40;;;;;;8403702;28;20717;-78
2021/07/11 11:11:29;;;;;;;4.10;3.80;;;26.60;87.60;;;;;;8399624;28;21081;-77
2021/07/11 11:15:48;;;;;;;6.17;5.60;;;27.20;88.40;;;;;;8391779;28;20208;-78
2021/07/11 11:19:48;;;;;;;6.50;6.00;;;27.60;87.30;;;;;;8395466;28;20441;-78
2021/07/11 11:23:54;;;;;;;6.50;5.90;;;27.60;87.30;;;;;;8395524;28;20498;-77
2021/07/11 11:27:58;;;;;;;7.90;6.43;;;27.40;86.50;;;;;;8399589;28;20351;-78
2021/07/11 11:32:08;;;;;;;9.67;6.90;;;27.30;86.60;;;;;;8392473;28;20469;-77
2021/07/11 11:36:08;;;;;;;6.53;5.40;;;27.60;87.20;;;;;;8387836;28;20438;-77
2021/07/11 11:40:10;;;;;;;5.70;5.20;;;28.10;86.90;;;;;;8393779;28;20472;-77
2021/07/11 11:44:11;;;;;;;7.03;6.33;;;28.40;84.10;;;;;;8426543;28;20191;-77
2021/07/11 11:48:12;;;;;;;5.90;5.40;;;28.40;83.00;;;;;;8395024;28;20555;-77
2021/07/11 11:52:12;;;;;;;6.40;5.80;;;28.20;83.50;;;;;;8389863;28;20236;-76
2021/07/11 11:56:13;;;;;;;6.87;5.77;;;28.00;83.00;;;;;;8386501;28;20182;-77
2021/07/11 12:00:16;;;;;;;8.93;5.80;;;28.00;82.90;;;;;;8388757;28;20182;-76
2021/07/11 12:04:17;;;;;;;5.40;4.90;;;28.10;83.30;;;;;;8387560;28;20468;-76
2021/07/11 12:08:18;;;;;;;8.10;6.13;;;28.10;82.10;;;;;;8394702;28;20475;-78
2021/07/11 12:12:19;;;;;;;6.20;5.50;;;28.00;80.20;;;;;;8393722;28;20457;-78
2021/07/11 12:16:20;;;;;;;4.50;4.20;;;28.00;81.20;;;;;;8391892;28;20490;-77
2021/07/11 12:20:20;;;;;;;6.30;5.70;;;27.90;80.00;;;;;;8395071;28;20181;-76
2021/07/11 12:24:27;;;;;;;5.07;4.47;;;27.90;80.00;;;;;;8388105;28;20197;-77
2021/07/11 12:28:28;;;;;;;5.23;4.70;;;28.40;79.90;;;;;;8382832;28;20234;-77
2021/07/11 12:32:42;;;;;;;6.07;4.80;;;28.80;79.20;;;;;;8393303;28;20517;-77
2021/07/11 12:37:00;;;;;;;6.10;5.20;;;28.90;78.50;;;;;;8393237;28;20437;-76
2021/07/11 12:41:04;;;;;;;5.07;4.63;;;28.90;78.20;;;;;;8379930;28;20465;-75
2021/07/11 12:45:19;;;;;;;6.27;4.17;;;28.90;77.30;;;;;;8387938;28;20444;-77
2021/07/11 12:49:20;;;;;;;5.00;4.57;;;29.00;76.80;;;;;;8381577;28;20945;-77
2021/07/11 12:53:21;;;;;;;4.50;4.20;;;28.90;74.90;;;;;;8387367;28;20845;-77
2021/07/11 12:57:26;;;;;;;4.87;4.40;;;28.70;75.30;;;;;;8392525;28;20189;-77
2021/07/11 13:01:26;;;;;;;6.20;4.90;;;28.20;76.00;;;;;;8388305;28;20529;-77
2021/07/11 13:05:39;;;;;;;6.03;5.10;;;27.90;78.80;;;;;;8390158;28;20927;-77
2021/07/11 13:09:41;;;;;;;6.03;4.97;;;27.90;78.70;;;;;;8385653;28;20206;-77
2021/07/11 13:13:42;;;;;;;4.97;4.57;;;27.80;78.50;;;;;;8380502;28;20520;-77
2021/07/11 13:17:44;;;;;;;4.53;4.23;;;28.10;78.80;;;;;;8382925;28;20478;-77
2021/07/11 13:21:45;;;;;;;5.33;4.63;;;28.50;79.00;;;;;;8392111;28;20186;-76
2021/07/11 13:25:46;;;;;;;5.80;4.20;;;28.50;76.60;;;;;;8389489;28;20448;-77
2021/07/11 13:29:46;;;;;;;4.47;4.17;;;28.20;75.40;;;;;;8383795;28;20523;-77
2021/07/11 13:33:47;;;;;;;5.83;5.10;;;27.90;78.40;;;;;;8385330;28;20186;-76
2021/07/11 13:37:48;;;;;;;4.60;4.30;;;27.90;77.70;;;;;;8388246;28;20186;-77
2021/07/11 13:41:49;;;;;;;4.53;4.27;;;27.90;78.40;;;;;;8388375;28;20254;-77
2021/07/11 13:45:50;;;;;;;5.53;5.03;;;28.00;77.90;;;;;;8392190;28;20440;-76
2021/07/11 13:49:51;;;;;;;4.50;4.20;;;27.70;77.50;;;;;;8391566;28;20213;-77
2021/07/11 13:53:52;;;;;;;4.90;4.50;;;27.30;77.20;;;;;;8391744;28;20183;-76
2021/07/11 13:57:53;;;;;;;5.40;4.90;;;27.00;78.40;;;;;;8393798;28;20547;-76
2021/07/11 14:01:53;;;;;;;5.57;4.10;;;26.90;78.90;;;;;;8384261;28;20179;-77
2021/07/11 14:05:54;;;;;;;7.10;5.40;;;26.70;79.10;;;;;;8388456;28;21022;-76
2021/07/11 14:09:55;;;;;;;4.60;4.27;;;26.50;81.00;;;;;;8381366;28;20218;-77
2021/07/11 18:53:26;;;;;;;7.93;4.90;;;20.70;99.30;;;;;;8364108;28;20673;-81
2021/07/11 18:57:26;;;;;;;4.90;4.23;;;21.30;99.40;;;;;;8345552;28;20430;-77
2021/07/11 19:01:27;;;;;;;5.40;4.70;;;22.40;97.80;;;;;;8352183;28;20873;-77
2021/07/11 19:05:28;;;;;;;6.00;5.00;;;22.90;96.90;;;;;;8348969;28;20198;-77
2021/07/11 19:09:29;;;;;;;6.57;5.97;;;23.20;96.30;;;;;;8345340;28;20445;-77
2021/07/11 19:13:29;;;;;;;6.50;4.80;;;23.30;96.00;;;;;;8353868;28;20551;-78
2021/07/11 19:17:30;;;;;;;4.77;4.37;;;23.40;96.10;;;;;;8349394;28;20980;-78
2021/07/11 19:21:31;;;;;;;5.87;5.37;;;23.40;95.70;;;;;;8345612;28;20218;-77
2021/07/11 19:25:32;;;;;;;7.60;5.50;;;23.30;95.80;;;;;;8347170;28;20433;-77
2021/07/11 19:29:33;;;;;;;7.70;5.90;;;23.30;96.30;;;;;;8349076;28;20191;-77
2021/07/11 19:33:34;;;;;;;6.40;5.20;;;23.20;95.90;;;;;;8349970;28;20270;-77
2021/07/11 19:37:34;;;;;;;5.13;4.73;;;23.20;96.30;;;;;;8342786;28;20498;-77
2021/07/11 19:41:35;;;;;;;10.03;5.60;;;23.10;96.80;;;;;;8343836;28;20235;-77
2021/07/11 19:45:36;;;;;;;5.57;5.07;;;22.90;97.30;;;;;;8348918;28;20213;-77
2021/07/11 19:49:37;;;;;;;5.83;5.23;;;22.70;97.20;;;;;;8339216;28;20202;-77
2021/07/11 19:53:38;;;;;;;8.53;6.67;;;22.60;97.40;;;;;;8347727;28;20564;-78
2021/07/11 19:57:38;;;;;;;7.13;6.43;;;22.50;98.00;;;;;;8347572;28;20194;-77
2021/07/11 20:01:39;;;;;;;7.70;7.00;;;22.30;98.40;;;;;;8337896;28;20465;-76
2021/07/11 20:05:40;;;;;;;7.90;7.10;;;22.10;98.80;;;;;;8329197;28;20655;-77
2021/07/11 20:09:40;;;;;;;8.30;6.60;;;22.00;99.10;;;;;;8328881;28;20191;-77
2021/07/11 20:13:41;;;;;;;8.57;6.13;;;21.90;99.40;;;;;;8325036;28;20204;-77
2021/07/11 20:17:42;;;;;;;9.93;6.37;;;21.70;99.60;;;;;;8326060;28;20650;-77
2021/07/11 20:21:42;;;;;;;6.60;6.00;;;21.60;99.90;;;;;;8329039;28;20281;-77
2021/07/11 20:25:43;;;;;;;6.43;5.40;;;21.50;99.90;;;;;;8318813;28;20203;-77
2021/07/11 20:29:45;;;;;;;6.93;5.93;;;21.40;99.90;;;;;;8323973;28;20208;-78
2021/07/11 20:33:45;;;;;;;8.10;6.47;;;21.20;99.90;;;;;;8321519;28;20188;-77
2021/07/11 20:37:46;;;;;;;6.57;6.00;;;21.10;99.90;;;;;;8318226;28;20438;-77
2021/07/11 20:41:47;;;;;;;6.80;6.10;;;21.00;99.90;;;;;;8346808;28;20224;-77
2021/07/11 20:45:48;;;;;;;5.33;4.83;;;20.90;99.90;;;;;;8323042;28;20287;-77
2021/07/11 20:49:49;;;;;;;7.03;5.03;;;20.90;99.90;;;;;;8325449;28;20485;-77
2021/07/11 20:53:49;;;;;;;6.10;5.50;;;20.80;99.90;;;;;;8332890;28;21246;-77
2021/07/11 20:57:51;;;;;;;6.63;5.67;;;20.70;99.90;;;;;;8326198;28;20211;-77
2021/07/11 21:01:51;;;;;;;7.93;5.70;;;20.60;99.90;;;;;;8320667;28;20180;-77
2021/07/11 21:05:52;;;;;;;6.40;5.03;;;20.50;99.90;;;;;;8317278;28;20884;-78
2021/07/11 21:09:57;;;;;;;7.40;5.20;;;20.40;99.90;;;;;;8359312;28;20220;-78
2021/07/11 21:13:58;;;;;;;5.07;4.70;;;20.40;99.90;;;;;;8322943;28;20188;-77
2021/07/11 21:17:59;;;;;;;6.17;5.57;;;20.30;99.90;;;;;;8358409;28;20438;-77
2021/07/11 21:22:00;;;;;;;4.60;4.00;;;20.20;99.90;;;;;;8324270;28;20443;-78
2021/07/11 21:26:01;;;;;;;5.60;4.57;;;20.20;99.90;;;;;;8324131;28;20195;-77
2021/07/11 21:30:02;;;;;;;6.20;5.60;;;20.10;99.90;;;;;;8318535;28;20226;-77
2021/07/11 21:34:03;;;;;;;7.77;5.53;;;20.00;99.90;;;;;;8329167;28;20223;-77
2021/07/11 21:38:04;;;;;;;6.63;5.60;;;20.00;99.90;;;;;;8338737;28;20438;-78
2021/07/11 21:42:04;;;;;;;5.67;5.20;;;19.90;99.90;;;;;;8319201;28;20209;-77
2021/07/11 21:46:05;;;;;;;5.50;5.00;;;19.80;99.90;;;;;;8322824;28;21048;-77
2021/07/11 21:50:07;;;;;;;6.13;5.63;;;19.70;99.90;;;;;;8327497;28;20258;-76
2021/07/11 21:54:09;;;;;;;5.53;5.03;;;19.70;99.90;;;;;;8320366;28;21017;-77
2021/07/11 21:58:10;;;;;;;6.20;5.50;;;19.60;99.90;;;;;;8324882;28;20445;-77
2021/07/11 22:02:11;;;;;;;4.50;4.20;;;19.50;99.90;;;;;;8351774;28;20445;-78
2021/07/11 22:06:11;;;;;;;7.03;5.93;;;19.40;99.90;;;;;;8325230;28;20194;-77
2021/07/11 22:10:14;;;;;;;6.23;5.70;;;19.30;99.90;;;;;;8357222;28;20264;-77
2021/07/11 22:14:15;;;;;;;6.30;5.70;;;19.20;99.90;;;;;;8322068;28;20191;-77
2021/07/11 22:18:16;;;;;;;6.77;5.90;;;19.10;99.90;;;;;;8320268;28;20446;-76
2021/07/11 22:22:16;;;;;;;6.40;5.77;;;19.10;99.90;;;;;;8323259;28;20277;-77
2021/07/11 22:26:17;;;;;;;6.40;5.40;;;18.90;99.90;;;;;;8319900;28;20194;-77
2021/07/11 22:30:20;;;;;;;6.67;5.50;;;18.90;99.90;;;;;;8345032;28;20214;-77
2021/07/11 22:34:21;;;;;;;5.50;5.10;;;18.80;99.90;;;;;;8355722;28;20549;-77
2021/07/11 22:38:24;;;;;;;5.70;5.20;;;18.80;99.90;;;;;;8324145;28;20871;-78
2021/07/11 22:42:24;;;;;;;5.57;5.17;;;18.80;99.90;;;;;;8325493;28;20258;-78
2021/07/11 22:46:29;;;;;;;5.73;5.10;;;18.80;99.90;;;;;;8323260;28;20518;-78
2021/07/11 22:50:29;;;;;;;9.87;6.30;;;18.80;99.90;;;;;;8327612;28;20238;-78
2021/07/11 22:54:31;;;;;;;6.13;5.10;;;18.80;99.90;;;;;;8324174;28;20457;-78
2021/07/11 22:58:32;;;;;;;5.30;4.80;;;18.80;99.90;;;;;;8326288;28;20234;-77
2021/07/11 23:02:32;;;;;;;5.73;5.23;;;18.90;99.90;;;;;;8328441;28;20968;-78
2021/07/11 23:06:33;;;;;;;5.40;5.00;;;18.90;99.90;;;;;;8321699;28;20190;-78
2021/07/11 23:10:34;;;;;;;5.53;5.07;;;18.90;99.90;;;;;;8323425;28;20282;-78
2021/07/11 23:14:35;;;;;;;5.67;5.13;;;19.00;99.90;;;;;;8323308;28;20198;-78
2021/07/11 23:18:35;;;;;;;4.73;4.13;;;19.00;99.90;;;;;;8318097;28;20191;-78
2021/07/11 23:22:37;;;;;;;7.53;5.90;;;18.90;99.90;;;;;;8323406;28;20449;-77
2021/07/11 23:26:38;;;;;;;5.63;4.90;;;18.80;99.90;;;;;;8325682;28;20191;-77
2021/07/11 23:30:38;;;;;;;5.83;4.83;;;18.80;99.90;;;;;;8319376;28;20501;-78
2021/07/11 23:34:39;;;;;;;5.70;5.30;;;18.70;99.90;;;;;;8321229;28;20190;-78
2021/07/11 23:38:40;;;;;;;7.20;6.50;;;18.60;99.90;;;;;;8326900;28;20190;-77
2021/07/11 23:42:40;;;;;;;8.27;5.30;;;18.50;99.90;;;;;;8328640;28;20223;-78
2021/07/11 23:46:41;;;;;;;11.03;5.50;;;18.50;99.90;;;;;;8326669;28;20202;-78
2021/07/11 23:50:42;;;;;;;5.43;4.93;;;18.30;99.90;;;;;;8327106;28;20262;-78
2021/07/11 23:54:43;;;;;;;4.63;4.33;;;18.20;99.90;;;;;;8361316;28;20656;-78
2021/07/11 23:58:43;;;;;;;6.47;5.80;;;18.20;99.90;;;;;;8366525;28;20186;-77
